Time;durP1;ratioP1;P1;durP2;ratioP2;P2;SDS_P1;SDS_P2;PMS_P1;PMS_P2;Temp;Humidity;BMP_temperature;BMP_pressure;BME280_temperature;BME280_humidity;BME280_pressure;Samples;Min_cycle;Max_cycle;Signal;HPM_P1;HPM_P2
2022/06/10 00:00:40;;;;;;;1.73;1.42;;;;;;;;;;5054890;28;20377;-85
2022/06/10 00:03:06;;;;;;;1.70;1.33;;;;;;;;;;5054915;28;20409;-85
2022/06/10 00:05:36;;;;;;;1.83;1.20;;;;;;;;;;5041976;28;20887;-84
2022/06/10 00:08:02;;;;;;;1.33;1.23;;;;;;;;;;5053416;28;20382;-85
2022/06/10 00:10:28;;;;;;;2.73;1.60;;;;;;;;;;5054729;28;20389;-86
2022/06/10 00:12:55;;;;;;;3.00;1.75;;;;;;;;;;5054408;28;20408;-85
2022/06/10 00:15:21;;;;;;;1.90;1.60;;;;;;;;;;5054525;28;20393;-85
2022/06/10 00:17:47;;;;;;;1.70;1.60;;;;;;;;;;5054270;28;20425;-86
2022/06/10 00:20:14;;;;;;;2.38;1.48;;;;;;;;;;5054421;28;20731;-86
2022/06/10 00:22:41;;;;;;;2.25;1.75;;;;;;;;;;5054516;28;20396;-85
2022/06/10 00:25:07;;;;;;;2.00;1.50;;;;;;;;;;5053856;28;20439;-85
2022/06/10 00:27:34;;;;;;;2.38;1.50;;;;;;;;;;5054288;28;20452;-85
2022/06/10 00:30:00;;;;;;;2.65;1.73;;;;;;;;;;5054179;28;20417;-85
2022/06/10 00:32:26;;;;;;;2.33;1.50;;;;;;;;;;5054409;28;20393;-86
2022/06/10 00:34:52;;;;;;;4.10;1.45;;;;;;;;;;5051379;28;20390;-85
2022/06/10 00:37:18;;;;;;;2.90;1.70;;;;;;;;;;5044004;28;20413;-85
2022/06/10 00:39:44;;;;;;;1.83;1.67;;;;;;;;;;5054065;28;20427;-85
2022/06/10 00:42:11;;;;;;;2.60;1.90;;;;;;;;;;5053853;28;20436;-85
2022/06/10 00:44:37;;;;;;;2.83;2.03;;;;;;;;;;5053884;28;20774;-86
2022/06/10 00:47:13;;;;;;;2.95;2.03;;;;;;;;;;5052540;28;20373;-85
2022/06/10 00:49:40;;;;;;;2.13;1.70;;;;;;;;;;5044462;28;20383;-86
2022/06/10 00:52:13;;;;;;;2.08;1.70;;;;;;;;;;5049416;28;20392;-85
2022/06/10 00:54:40;;;;;;;2.40;1.90;;;;;;;;;;5053714;28;20470;-85
2022/06/10 00:57:09;;;;;;;2.35;2.15;;;;;;;;;;5052457;28;20417;-85
2022/06/10 00:59:41;;;;;;;2.95;2.03;;;;;;;;;;5053648;28;20373;-85
2022/06/10 01:02:15;;;;;;;3.25;1.73;;;;;;;;;;5040715;28;20375;-85
2022/06/10 01:04:42;;;;;;;1.83;1.70;;;;;;;;;;5023200;28;20946;-85
2022/06/10 01:07:09;;;;;;;3.15;1.70;;;;;;;;;;5046910;28;20434;-85
2022/06/10 01:09:35;;;;;;;1.70;1.60;;;;;;;;;;5053358;28;20388;-85
2022/06/10 01:12:27;;;;;;;2.10;1.70;;;;;;;;;;5053450;28;20473;-85
2022/06/10 01:14:59;;;;;;;3.47;1.70;;;;;;;;;;5050510;28;20373;-85
2022/06/10 01:17:31;;;;;;;2.10;1.48;;;;;;;;;;5019866;28;20408;-85
2022/06/10 01:20:16;;;;;;;1.80;1.60;;;;;;;;;;5027526;28;20438;-85
2022/06/10 01:23:04;;;;;;;1.52;1.42;;;;;;;;;;5053069;28;20446;-86
2022/06/10 01:25:36;;;;;;;2.33;1.63;;;;;;;;;;5048685;28;20372;-85
2022/06/10 01:28:02;;;;;;;2.10;1.80;;;;;;;;;;5047855;28;20385;-86
2022/06/10 01:30:37;;;;;;;2.30;1.80;;;;;;;;;;5045245;28;20410;-85
2022/06/10 01:33:03;;;;;;;2.47;1.90;;;;;;;;;;5035442;28;20422;-85
2022/06/10 01:35:32;;;;;;;2.47;1.95;;;;;;;;;;5047411;28;20414;-84
2022/06/10 01:38:07;;;;;;;2.95;2.00;;;;;;;;;;5045883;28;20485;-83
2022/06/10 01:40:33;;;;;;;2.45;1.80;;;;;;;;;;5053129;28;20450;-85
2022/06/10 01:43:07;;;;;;;2.72;2.10;;;;;;;;;;5052839;28;20461;-85
2022/06/10 01:45:36;;;;;;;2.85;1.92;;;;;;;;;;5053107;28;20408;-85
2022/06/10 01:48:07;;;;;;;1.77;1.63;;;;;;;;;;5053364;28;20385;-85
2022/06/10 01:50:50;;;;;;;1.75;1.60;;;;;;;;;;5052727;28;22188;-86
2022/06/10 01:53:28;;;;;;;2.28;1.60;;;;;;;;;;5052870;28;20488;-84
2022/06/10 01:56:04;;;;;;;1.90;1.52;;;;;;;;;;5051340;28;20381;-84
2022/06/10 01:58:33;;;;;;;1.95;1.70;;;;;;;;;;5047404;28;20424;-85
2022/06/10 02:01:05;;;;;;;1.77;1.60;;;;;;;;;;5031803;28;20385;-85
2022/06/10 02:03:31;;;;;;;2.05;1.85;;;;;;;;;;5031230;28;20902;-85
2022/06/10 02:06:02;;;;;;;1.75;1.42;;;;;;;;;;5031276;28;20435;-85
2022/06/10 02:08:33;;;;;;;1.50;1.40;;;;;;;;;;5025333;28;20399;-84
2022/06/10 02:11:13;;;;;;;1.87;1.40;;;;;;;;;;5030076;28;20386;-84
2022/06/10 02:13:46;;;;;;;2.05;1.50;;;;;;;;;;5048667;28;20428;-84
2022/06/10 02:16:15;;;;;;;1.60;1.50;;;;;;;;;;5048268;28;20455;-85
2022/06/10 02:18:42;;;;;;;2.45;1.50;;;;;;;;;;5024060;28;20506;-84
2022/06/10 02:21:15;;;;;;;1.47;1.30;;;;;;;;;;5042332;28;20378;-86
2022/06/10 02:23:43;;;;;;;1.98;1.30;;;;;;;;;;5049952;28;20377;-84
2022/06/10 02:26:10;;;;;;;1.53;1.30;;;;;;;;;;5048553;28;20389;-85
2022/06/10 02:28:41;;;;;;;1.85;1.50;;;;;;;;;;5040031;28;20464;-86
2022/06/10 02:31:16;;;;;;;2.13;1.55;;;;;;;;;;5052671;28;20467;-86
2022/06/10 02:33:42;;;;;;;1.85;1.48;;;;;;;;;;5051469;28;20382;-86
2022/06/10 02:36:15;;;;;;;2.95;1.90;;;;;;;;;;5041183;28;20389;-85
2022/06/10 02:38:48;;;;;;;2.40;1.67;;;;;;;;;;5039121;28;20894;-85
2022/06/10 02:41:29;;;;;;;1.77;1.58;;;;;;;;;;5052453;28;20385;-83
2022/06/10 02:44:02;;;;;;;1.70;1.50;;;;;;;;;;5052137;28;20373;-85
2022/06/10 02:46:35;;;;;;;2.40;1.65;;;;;;;;;;5052670;28;20378;-86
2022/06/10 02:49:02;;;;;;;2.33;1.65;;;;;;;;;;5055041;28;20373;-85
2022/06/10 02:51:28;;;;;;;1.55;1.45;;;;;;;;;;5056130;28;20381;-85
2022/06/10 02:53:54;;;;;;;1.85;1.67;;;;;;;;;;5056011;28;20403;-85
2022/06/10 02:56:22;;;;;;;2.40;1.55;;;;;;;;;;5054255;28;20853;-85
2022/06/10 03:01:33;;;;;;;2.15;1.67;;;;;;;;;;5056230;28;20431;-84
2022/06/10 03:04:02;;;;;;;2.45;1.50;;;;;;;;;;5055926;28;20381;-86
2022/06/10 03:06:52;;;;;;;1.88;1.23;;;;;;;;;;5043215;28;20444;-84
2022/06/10 03:09:35;;;;;;;1.50;1.40;;;;;;;;;;5041350;28;20382;-85
2022/06/10 03:12:17;;;;;;;1.55;1.45;;;;;;;;;;5054605;28;20827;-86
2022/06/10 03:14:52;;;;;;;1.67;1.30;;;;;;;;;;5054708;28;20404;-84
2022/06/10 03:17:24;;;;;;;1.77;1.40;;;;;;;;;;5040553;28;20406;-85
2022/06/10 03:20:09;;;;;;;2.17;1.40;;;;;;;;;;5055849;28;20382;-86
2022/06/10 03:22:41;;;;;;;3.03;1.58;;;;;;;;;;5055764;28;20392;-85
2022/06/10 03:25:07;;;;;;;1.83;1.70;;;;;;;;;;5055539;28;20428;-84
2022/06/10 03:27:33;;;;;;;1.90;1.60;;;;;;;;;;5055467;28;20378;-86
2022/06/10 03:30:07;;;;;;;1.75;1.55;;;;;;;;;;5034513;28;20470;-84
2022/06/10 03:32:40;;;;;;;2.47;1.67;;;;;;;;;;5035477;28;20402;-85
2022/06/10 03:35:15;;;;;;;1.70;1.60;;;;;;;;;;5050813;28;20898;-86
2022/06/10 03:37:42;;;;;;;2.87;1.50;;;;;;;;;;5048223;28;20416;-86
2022/06/10 03:40:14;;;;;;;2.30;1.70;;;;;;;;;;5055238;28;20374;-85
2022/06/10 03:42:45;;;;;;;1.42;1.30;;;;;;;;;;5055558;28;20374;-85
2022/06/10 03:45:13;;;;;;;3.13;1.73;;;;;;;;;;5054299;28;20802;-84
2022/06/10 03:47:39;;;;;;;2.53;1.50;;;;;;;;;;5055144;28;20390;-85
2022/06/10 03:50:08;;;;;;;2.88;1.73;;;;;;;;;;5055148;28;20425;-86
2022/06/10 03:52:35;;;;;;;2.65;2.05;;;;;;;;;;5053747;28;20760;-83
2022/06/10 03:55:01;;;;;;;2.13;1.75;;;;;;;;;;5054871;28;20377;-85
2022/06/10 03:57:29;;;;;;;3.70;2.03;;;;;;;;;;5055086;28;20417;-85
2022/06/10 03:59:58;;;;;;;2.67;1.73;;;;;;;;;;5054207;28;20377;-85
2022/06/10 04:02:24;;;;;;;2.25;1.63;;;;;;;;;;5054796;28;20374;-86
2022/06/10 04:04:51;;;;;;;1.65;1.50;;;;;;;;;;5049098;28;20380;-85
2022/06/10 04:07:18;;;;;;;1.80;1.60;;;;;;;;;;5049466;28;20378;-84
2022/06/10 04:09:44;;;;;;;2.55;1.60;;;;;;;;;;5054455;28;20378;-83
2022/06/10 04:12:10;;;;;;;2.28;1.60;;;;;;;;;;5054932;28;20751;-85
2022/06/10 04:14:37;;;;;;;3.47;1.85;;;;;;;;;;5024627;28;20400;-86
2022/06/10 04:17:06;;;;;;;2.58;1.80;;;;;;;;;;5022224;28;20413;-84
2022/06/10 04:19:32;;;;;;;3.78;2.20;;;;;;;;;;5025246;28;20809;-85
2022/06/10 04:21:58;;;;;;;2.13;1.92;;;;;;;;;;5018082;28;20385;-85
2022/06/10 04:24:25;;;;;;;2.55;2.20;;;;;;;;;;5019773;28;20385;-84
2022/06/10 04:26:52;;;;;;;2.38;2.17;;;;;;;;;;5053948;28;20370;-85
2022/06/10 04:29:18;;;;;;;3.60;2.20;;;;;;;;;;5040413;28;20888;-84
2022/06/10 04:31:44;;;;;;;2.70;2.03;;;;;;;;;;5052348;28;20937;-85
2022/06/10 04:34:11;;;;;;;3.47;1.98;;;;;;;;;;5054404;28;20417;-85
2022/06/10 04:36:38;;;;;;;2.60;2.40;;;;;;;;;;5043807;28;20388;-86
2022/06/10 04:39:04;;;;;;;3.60;2.38;;;;;;;;;;5054398;28;20405;-85
2022/06/10 04:41:31;;;;;;;3.97;2.65;;;;;;;;;;5054365;28;20409;-84
2022/06/10 04:43:57;;;;;;;2.78;2.40;;;;;;;;;;5053151;28;20392;-84
2022/06/10 04:46:26;;;;;;;4.28;2.42;;;;;;;;;;5054285;28;20422;-85
2022/06/10 04:48:52;;;;;;;2.70;2.33;;;;;;;;;;5052377;28;20402;-85
2022/06/10 04:51:18;;;;;;;3.17;2.42;;;;;;;;;;5033392;28;20878;-84
2022/06/10 04:53:48;;;;;;;2.90;2.35;;;;;;;;;;5048803;28;20389;-86
2022/06/10 04:56:14;;;;;;;3.25;2.40;;;;;;;;;;5044422;28;20414;-85
2022/06/10 04:58:40;;;;;;;2.45;2.20;;;;;;;;;;5047541;28;20405;-84
2022/06/10 05:01:06;;;;;;;3.03;2.28;;;;;;;;;;5053563;28;20373;-84
2022/06/10 05:03:32;;;;;;;2.80;2.22;;;;;;;;;;5028645;28;20398;-84
2022/06/10 05:05:59;;;;;;;2.83;2.28;;;;;;;;;;5038549;28;20409;-86
2022/06/10 05:08:25;;;;;;;2.60;2.40;;;;;;;;;;5054375;28;20739;-84
2022/06/10 05:10:51;;;;;;;3.03;2.45;;;;;;;;;;5035678;28;20378;-85
2022/06/10 05:13:17;;;;;;;4.35;3.05;;;;;;;;;;5038469;28;20389;-84
2022/06/10 05:15:44;;;;;;;3.70;2.45;;;;;;;;;;5034488;28;20395;-86
2022/06/10 05:18:10;;;;;;;3.10;2.80;;;;;;;;;;5039709;28;20417;-85
2022/06/10 05:20:38;;;;;;;4.63;3.28;;;;;;;;;;5022930;28;20467;-86
2022/06/10 05:23:05;;;;;;;5.38;3.30;;;;;;;;;;5049621;28;20420;-85
2022/06/10 05:25:32;;;;;;;4.05;3.30;;;;;;;;;;5042854;28;20382;-87
2022/06/10 05:27:58;;;;;;;4.20;3.80;;;;;;;;;;5050433;28;20480;-86
2022/06/10 05:30:25;;;;;;;4.30;3.60;;;;;;;;;;5053164;28;20423;-84
2022/06/10 05:32:51;;;;;;;4.75;3.63;;;;;;;;;;5051884;28;20408;-86
2022/06/10 05:35:18;;;;;;;5.38;4.45;;;;;;;;;;5051415;28;20438;-84
2022/06/10 05:37:46;;;;;;;5.78;4.40;;;;;;;;;;5033159;28;20406;-83
2022/06/10 05:40:13;;;;;;;6.47;5.07;;;;;;;;;;5038266;28;20403;-85
2022/06/10 05:42:40;;;;;;;8.93;6.15;;;;;;;;;;5051336;28;20464;-83
2022/06/10 05:45:06;;;;;;;10.03;6.00;;;;;;;;;;5051412;28;20384;-84
2022/06/10 05:47:33;;;;;;;7.40;5.32;;;;;;;;;;5052795;28;20397;-85
2022/06/10 05:50:01;;;;;;;7.68;5.88;;;;;;;;;;5029086;28;20388;-85
2022/06/10 05:52:31;;;;;;;10.90;6.72;;;;;;;;;;5019055;28;20383;-86
2022/06/10 05:55:00;;;;;;;8.88;7.32;;;;;;;;;;5028509;28;20393;-85
2022/06/10 05:57:26;;;;;;;9.53;6.17;;;;;;;;;;5033902;28;20405;-87
2022/06/10 05:59:52;;;;;;;9.38;5.97;;;;;;;;;;5052579;28;20378;-87
2022/06/10 06:02:19;;;;;;;7.53;6.28;;;;;;;;;;5052538;28;20373;-86
2022/06/10 06:04:45;;;;;;;6.85;6.00;;;;;;;;;;5030628;28;20399;-87
2022/06/10 06:07:15;;;;;;;8.70;6.40;;;;;;;;;;5046308;28;20485;-86
2022/06/10 06:09:41;;;;;;;9.88;7.50;;;;;;;;;;5013860;28;20396;-86
2022/06/10 06:12:07;;;;;;;11.63;7.20;;;;;;;;;;5037245;28;20394;-86
2022/06/10 06:14:33;;;;;;;10.67;7.00;;;;;;;;;;5053446;28;20886;-85
2022/06/10 06:17:00;;;;;;;10.32;6.68;;;;;;;;;;5052525;28;20897;-78
2022/06/10 06:19:27;;;;;;;9.93;6.63;;;;;;;;;;5052045;28;20375;-80
2022/06/10 06:21:54;;;;;;;11.25;6.70;;;;;;;;;;5052450;28;20463;-82
2022/06/10 06:24:20;;;;;;;10.20;6.85;;;;;;;;;;5057864;28;20381;-87
2022/06/10 06:26:46;;;;;;;10.77;6.10;;;;;;;;;;5054274;28;20381;-87
2022/06/10 06:29:12;;;;;;;7.95;5.82;;;;;;;;;;5059042;28;20865;-87
2022/06/10 06:31:38;;;;;;;6.38;4.90;;;;;;;;;;5050388;28;20412;-87
2022/06/10 06:34:04;;;;;;;4.97;3.78;;;;;;;;;;5058864;28;20716;-87
2022/06/10 06:36:32;;;;;;;4.95;4.40;;;;;;;;;;5036340;28;20405;-88
2022/06/10 06:39:00;;;;;;;5.45;3.97;;;;;;;;;;5058877;28;20412;-84
2022/06/10 06:41:26;;;;;;;6.73;4.63;;;;;;;;;;5037746;28;20376;-84
2022/06/10 06:43:52;;;;;;;5.90;4.05;;;;;;;;;;5033151;28;20433;-85
2022/06/10 06:46:19;;;;;;;5.95;3.80;;;;;;;;;;5022485;28;20446;-84
2022/06/10 06:48:45;;;;;;;8.27;4.60;;;;;;;;;;5023560;28;20384;-84
2022/06/10 06:51:11;;;;;;;5.50;4.00;;;;;;;;;;5025779;28;20385;-85
2022/06/10 06:53:37;;;;;;;4.20;3.57;;;;;;;;;;5024968;28;20391;-85
2022/06/10 06:56:07;;;;;;;5.03;4.03;;;;;;;;;;5020571;28;20936;-85
2022/06/10 06:58:33;;;;;;;4.57;4.00;;;;;;;;;;5019429;28;20611;-85
2022/06/10 07:00:59;;;;;;;6.30;3.75;;;;;;;;;;5021454;28;20416;-86
2022/06/10 07:03:25;;;;;;;4.20;3.47;;;;;;;;;;5021914;28;20522;-85
2022/06/10 07:05:52;;;;;;;4.65;3.58;;;;;;;;;;5018583;28;20381;-86
2022/06/10 07:08:18;;;;;;;5.22;3.75;;;;;;;;;;5022652;28;20404;-85
2022/06/10 07:10:46;;;;;;;6.43;3.90;;;;;;;;;;5024416;28;20416;-86
2022/06/10 07:13:12;;;;;;;5.15;3.80;;;;;;;;;;5058798;28;20388;-87
2022/06/10 07:15:40;;;;;;;5.22;3.42;;;;;;;;;;5058464;28;20381;-86
2022/06/10 07:18:07;;;;;;;6.03;3.63;;;;;;;;;;5045027;28;20463;-86
2022/06/10 07:20:34;;;;;;;6.13;3.40;;;;;;;;;;5042048;28;20405;-87
2022/06/10 07:23:01;;;;;;;5.03;3.53;;;;;;;;;;5058450;28;20373;-85
2022/06/10 07:25:28;;;;;;;6.90;3.28;;;;;;;;;;5053705;28;20402;-86
2022/06/10 07:27:55;;;;;;;4.53;2.95;;;;;;;;;;5037982;28;20399;-86
2022/06/10 07:30:22;;;;;;;4.90;2.85;;;;;;;;;;5033568;28;20402;-85
2022/06/10 07:32:48;;;;;;;6.25;3.05;;;;;;;;;;5018856;28;20977;-86
2022/06/10 07:35:17;;;;;;;7.70;4.18;;;;;;;;;;5029208;28;20385;-87
2022/06/10 07:37:43;;;;;;;5.90;4.00;;;;;;;;;;5018915;28;20902;-86
2022/06/10 07:41:56;;;;;;;5.90;4.07;;;;;;;;;;5026933;28;20426;-86
2022/06/10 07:42:55;;;;;;;6.25;3.95;;;;;;;;;;5033314;28;20382;-86
2022/06/10 07:45:21;;;;;;;6.13;3.72;;;;;;;;;;5037083;28;20406;-86
2022/06/10 07:47:47;;;;;;;9.03;4.90;;;;;;;;;;5030848;28;20874;-85
2022/06/10 07:50:13;;;;;;;7.60;5.75;;;;;;;;;;5033901;28;20395;-87
2022/06/10 07:52:39;;;;;;;9.65;5.70;;;;;;;;;;5040734;28;20381;-87
2022/06/10 07:55:06;;;;;;;7.57;5.55;;;;;;;;;;5046167;28;20472;-87
2022/06/10 07:57:32;;;;;;;8.20;5.30;;;;;;;;;;5039443;28;20921;-87
2022/06/10 07:59:58;;;;;;;8.20;5.60;;;;;;;;;;5055028;28;20382;-87
2022/06/10 08:02:24;;;;;;;9.35;5.70;;;;;;;;;;5045751;28;20387;-86
2022/06/10 08:04:50;;;;;;;7.47;5.22;;;;;;;;;;5041617;28;20825;-87
2022/06/10 08:07:16;;;;;;;8.17;4.73;;;;;;;;;;5042700;28;20398;-86
2022/06/10 08:09:42;;;;;;;8.77;3.88;;;;;;;;;;5047200;28;20398;-86
2022/06/10 08:12:09;;;;;;;6.25;4.30;;;;;;;;;;5032616;28;20478;-88
2022/06/10 08:14:35;;;;;;;7.00;3.60;;;;;;;;;;5053354;28;20439;-89
2022/06/10 08:17:06;;;;;;;5.65;3.42;;;;;;;;;;5055514;28;20389;-89
2022/06/10 08:19:32;;;;;;;6.45;3.80;;;;;;;;;;5055085;28;20400;-87
2022/06/10 08:24:43;;;;;;;6.47;3.80;;;;;;;;;;5054258;28;20385;-87
2022/06/10 08:27:09;;;;;;;6.85;4.15;;;;;;;;;;5044481;28;20435;-86
2022/06/10 08:29:35;;;;;;;5.85;4.00;;;;;;;;;;5046475;28;20373;-87
2022/06/10 08:32:01;;;;;;;7.13;3.63;;;;;;;;;;5054215;28;20378;-86
2022/06/10 08:34:27;;;;;;;6.20;3.03;;;;;;;;;;5053013;28;20927;-86
2022/06/10 08:36:53;;;;;;;6.53;3.10;;;;;;;;;;5054242;28;20385;-86
2022/06/10 08:39:19;;;;;;;6.70;3.45;;;;;;;;;;5050809;28;20379;-86
2022/06/10 08:41:46;;;;;;;5.38;3.28;;;;;;;;;;5038383;28;20447;-86
2022/06/10 08:44:12;;;;;;;4.82;2.65;;;;;;;;;;5053919;28;20385;-86
2022/06/10 08:46:58;;;;;;;4.93;2.45;;;;;;;;;;5051261;28;20373;-87
2022/06/10 08:49:33;;;;;;;3.37;1.80;;;;;;;;;;5045230;28;20859;-89
2022/06/10 08:52:05;;;;;;;3.55;1.65;;;;;;;;;;5054162;28;20403;-87
2022/06/10 08:54:36;;;;;;;4.97;2.03;;;;;;;;;;5054219;28;20377;-87
2022/06/10 08:57:14;;;;;;;6.57;1.88;;;;;;;;;;5053739;28;20376;-87
2022/06/10 08:59:44;;;;;;;3.63;1.50;;;;;;;;;;5052811;28;20754;-88
2022/06/10 09:02:18;;;;;;;4.13;1.48;;;;;;;;;;5047510;28;20477;-88
2022/06/10 09:04:54;;;;;;;4.95;1.80;;;;;;;;;;5052477;28;20392;-88
2022/06/10 09:07:23;;;;;;;3.95;1.73;;;;;;;;;;5053872;28;20377;-88
2022/06/10 09:09:49;;;;;;;3.72;1.60;;;;;;;;;;5053829;28;20386;-88
2022/06/10 09:12:21;;;;;;;3.87;1.53;;;;;;;;;;5026997;28;20491;-88
2022/06/10 09:14:50;;;;;;;3.22;1.40;;;;;;;;;;5024733;28;20736;-88
2022/06/10 09:17:20;;;;;;;3.65;1.70;;;;;;;;;;5053696;28;20409;-88
2022/06/10 09:19:49;;;;;;;4.25;1.50;;;;;;;;;;5053428;28;20381;-88
2022/06/10 09:22:15;;;;;;;2.63;1.27;;;;;;;;;;5040337;28;20399;-88
2022/06/10 09:24:48;;;;;;;3.25;1.38;;;;;;;;;;5036998;28;20385;-88
2022/06/10 09:27:27;;;;;;;3.35;1.30;;;;;;;;;;5035043;28;20844;-87
2022/06/10 09:29:53;;;;;;;4.45;1.33;;;;;;;;;;5051787;28;20871;-87
2022/06/10 09:32:45;;;;;;;3.85;1.40;;;;;;;;;;5053344;28;20381;-88
2022/06/10 09:35:51;;;;;;;4.50;1.30;;;;;;;;;;5051796;28;20366;-88
2022/06/10 09:38:36;;;;;;;3.95;1.27;;;;;;;;;;5048558;28;20508;-89
2022/06/10 09:41:34;;;;;;;2.88;1.35;;;;;;;;;;5051297;28;20386;-87
2022/06/10 09:44:12;;;;;;;3.15;1.20;;;;;;;;;;5052018;28;20464;-88
2022/06/10 09:47:01;;;;;;;3.17;1.00;;;;;;;;;;5053162;28;20385;-90
2022/06/10 09:49:36;;;;;;;2.85;1.00;;;;;;;;;;5052927;28;20392;-87
2022/06/10 09:52:41;;;;;;;2.63;0.90;;;;;;;;;;5053133;28;20385;-87
2022/06/10 09:55:20;;;;;;;3.53;1.15;;;;;;;;;;5051558;28;20385;-87
2022/06/10 09:58:01;;;;;;;3.42;1.20;;;;;;;;;;5050553;28;20463;-88
2022/06/10 10:00:37;;;;;;;2.58;1.00;;;;;;;;;;5052260;28;20385;-88
2022/06/10 10:03:12;;;;;;;2.42;0.85;;;;;;;;;;5053303;28;20374;-88
2022/06/10 10:05:57;;;;;;;3.28;1.20;;;;;;;;;;5052997;28;20374;-89
2022/06/10 10:08:29;;;;;;;2.72;1.15;;;;;;;;;;5052818;28;20389;-89
2022/06/10 10:11:08;;;;;;;4.40;1.50;;;;;;;;;;5053174;28;20377;-88
2022/06/10 10:13:37;;;;;;;2.08;1.27;;;;;;;;;;5053325;28;20389;-88
2022/06/10 10:16:20;;;;;;;2.65;1.50;;;;;;;;;;5053933;28;20405;-87
2022/06/10 10:18:49;;;;;;;5.40;1.40;;;;;;;;;;5053067;28;20436;-88
2022/06/10 10:21:38;;;;;;;2.35;1.20;;;;;;;;;;5053247;28;20464;-89
2022/06/10 10:24:10;;;;;;;3.50;1.20;;;;;;;;;;5041858;28;20812;-88
2022/06/10 10:26:38;;;;;;;2.42;1.00;;;;;;;;;;5052817;28;20385;-88
2022/06/10 10:29:05;;;;;;;4.03;1.60;;;;;;;;;;5051528;28;20480;-88
2022/06/10 10:31:36;;;;;;;5.00;2.10;;;;;;;;;;5052797;28;20382;-89
2022/06/10 10:34:04;;;;;;;4.72;2.70;;;;;;;;;;5052375;28;20373;-88
2022/06/10 10:36:30;;;;;;;1.92;0.95;;;;;;;;;;5041870;28;20381;-88
2022/06/10 10:38:57;;;;;;;3.25;1.23;;;;;;;;;;5032416;28;20406;-88
2022/06/10 10:41:23;;;;;;;3.33;1.10;;;;;;;;;;5048044;28;20466;-89
2022/06/10 10:43:50;;;;;;;2.00;0.95;;;;;;;;;;5051355;28;20806;-89
2022/06/10 10:46:55;;;;;;;3.25;1.10;;;;;;;;;;5051166;28;20443;-88
2022/06/10 10:49:29;;;;;;;5.63;1.35;;;;;;;;;;5050681;28;20393;-89
2022/06/10 10:51:56;;;;;;;2.33;0.80;;;;;;;;;;5050144;28;20385;-88
2022/06/10 10:54:28;;;;;;;2.90;0.95;;;;;;;;;;5050251;28;20492;-88
2022/06/10 10:56:55;;;;;;;2.08;1.10;;;;;;;;;;5050304;28;20386;-88
2022/06/10 10:59:27;;;;;;;2.80;1.10;;;;;;;;;;5050379;28;20381;-89
2022/06/10 11:01:54;;;;;;;1.48;0.90;;;;;;;;;;5049245;28;20463;-88
2022/06/10 11:04:29;;;;;;;2.58;0.90;;;;;;;;;;5034916;28;20881;-89
2022/06/10 11:07:18;;;;;;;3.15;1.02;;;;;;;;;;5038820;28;20394;-89
2022/06/10 11:09:52;;;;;;;2.78;1.05;;;;;;;;;;5024825;28;20748;-89
2022/06/10 11:12:20;;;;;;;2.38;1.10;;;;;;;;;;5034054;28;20395;-88
2022/06/10 11:14:57;;;;;;;2.33;1.05;;;;;;;;;;5034151;28;20379;-89
2022/06/10 11:17:24;;;;;;;2.75;0.95;;;;;;;;;;5034206;28;20410;-88
2022/06/10 11:19:52;;;;;;;2.03;1.02;;;;;;;;;;5032540;28;20490;-90
2022/06/10 11:22:24;;;;;;;2.08;0.70;;;;;;;;;;5036109;28;20375;-89
2022/06/10 11:24:54;;;;;;;1.80;0.90;;;;;;;;;;5055026;28;20456;-89
2022/06/10 11:27:20;;;;;;;1.58;0.70;;;;;;;;;;5044763;28;20414;-89
2022/06/10 11:29:57;;;;;;;1.77;0.68;;;;;;;;;;5046371;28;20387;-89
2022/06/10 11:32:25;;;;;;;2.58;0.70;;;;;;;;;;5036118;28;20714;-89
2022/06/10 11:34:59;;;;;;;2.00;0.70;;;;;;;;;;5053145;28;20378;-89
2022/06/10 11:37:33;;;;;;;1.23;0.60;;;;;;;;;;5047234;28;20489;-90
2022/06/10 11:40:11;;;;;;;2.28;0.93;;;;;;;;;;5055867;28;20405;-88
2022/06/10 11:42:42;;;;;;;2.10;0.80;;;;;;;;;;5044548;28;20429;-88
2022/06/10 11:45:15;;;;;;;1.50;0.85;;;;;;;;;;5053670;28;20460;-89
2022/06/10 11:47:44;;;;;;;1.40;0.60;;;;;;;;;;5055592;28;20392;-89
2022/06/10 11:50:15;;;;;;;2.13;0.80;;;;;;;;;;5055419;28;20476;-89
2022/06/10 11:53:10;;;;;;;1.70;0.93;;;;;;;;;;5055340;28;20419;-90
2022/06/10 11:55:39;;;;;;;3.60;1.00;;;;;;;;;;5055479;28;20405;-90
2022/06/10 12:01:17;;;;;;;2.20;0.70;;;;;;;;;;5056604;28;20443;-89
2022/06/10 12:03:47;;;;;;;2.30;0.90;;;;;;;;;;5056005;28;20421;-90
2022/06/10 12:06:13;;;;;;;2.15;0.80;;;;;;;;;;5055039;28;20377;-88
2022/06/10 12:08:42;;;;;;;3.53;0.80;;;;;;;;;;5055156;28;20385;-89
2022/06/10 12:11:14;;;;;;;3.17;1.00;;;;;;;;;;5055164;28;20461;-90
2022/06/10 12:13:51;;;;;;;1.52;0.80;;;;;;;;;;5055797;28;20400;-89
2022/06/10 12:16:17;;;;;;;1.97;0.80;;;;;;;;;;5055672;28;20408;-89
2022/06/10 12:18:46;;;;;;;3.08;0.90;;;;;;;;;;5054656;28;20402;-89
2022/06/10 12:21:20;;;;;;;2.67;0.93;;;;;;;;;;5053957;28;20940;-90
2022/06/10 12:23:47;;;;;;;1.90;0.80;;;;;;;;;;5054695;28;20382;-90
2022/06/10 12:26:36;;;;;;;3.25;0.85;;;;;;;;;;5052327;28;20420;-90
2022/06/10 12:29:21;;;;;;;2.00;0.80;;;;;;;;;;5046274;28;20377;-90
2022/06/10 12:31:58;;;;;;;1.92;0.90;;;;;;;;;;5054587;28;20905;-89
2022/06/10 12:34:43;;;;;;;1.57;0.63;;;;;;;;;;5054426;28;20542;-89
2022/06/10 12:37:16;;;;;;;2.15;0.70;;;;;;;;;;5044116;28;20826;-89
2022/06/10 12:39:48;;;;;;;2.35;0.70;;;;;;;;;;5054813;28;20377;-88
2022/06/10 12:42:18;;;;;;;2.20;0.80;;;;;;;;;;5038406;28;20389;-88
2022/06/10 12:44:49;;;;;;;1.58;0.60;;;;;;;;;;5048628;28;20378;-90
2022/06/10 12:47:16;;;;;;;2.80;0.80;;;;;;;;;;5054199;28;20803;-89
2022/06/10 12:49:43;;;;;;;2.30;0.85;;;;;;;;;;5054142;28;20382;-89
2022/06/10 12:52:28;;;;;;;1.87;0.63;;;;;;;;;;5053813;28;20412;-89
2022/06/10 12:55:03;;;;;;;2.15;0.75;;;;;;;;;;5053878;28;20855;-89
2022/06/10 12:57:32;;;;;;;1.45;0.60;;;;;;;;;;5053835;28;20406;-89
2022/06/10 13:00:17;;;;;;;1.58;0.70;;;;;;;;;;5053843;28;20918;-89
2022/06/10 13:02:44;;;;;;;2.20;0.77;;;;;;;;;;5030235;28;20372;-90
2022/06/10 13:05:27;;;;;;;2.40;0.70;;;;;;;;;;5053892;28;20381;-89
2022/06/10 13:07:53;;;;;;;2.22;0.80;;;;;;;;;;5053820;28;20593;-88
2022/06/10 13:10:29;;;;;;;1.63;0.70;;;;;;;;;;5042585;28;20411;-89
2022/06/10 13:12:59;;;;;;;1.58;0.63;;;;;;;;;;5052061;28;20397;-90
2022/06/10 13:15:29;;;;;;;2.00;0.75;;;;;;;;;;5046996;28;20381;-90
2022/06/10 13:18:15;;;;;;;2.97;0.73;;;;;;;;;;5053532;28;20500;-89
2022/06/10 13:20:42;;;;;;;2.53;0.80;;;;;;;;;;5053451;28;20381;-89
2022/06/10 13:23:13;;;;;;;2.55;0.80;;;;;;;;;;5052245;28;20385;-90
2022/06/10 13:25:40;;;;;;;3.10;0.60;;;;;;;;;;5053465;28;20429;-89
2022/06/10 13:28:14;;;;;;;2.28;0.70;;;;;;;;;;5046874;28;20379;-89
2022/06/10 13:30:42;;;;;;;1.95;0.70;;;;;;;;;;5033626;28;20414;-89
2022/06/10 13:33:11;;;;;;;1.75;0.70;;;;;;;;;;5049459;28;20412;-89
2022/06/10 13:35:48;;;;;;;2.38;0.60;;;;;;;;;;5038426;28;20422;-90
2022/06/10 13:38:35;;;;;;;1.60;0.65;;;;;;;;;;5050538;28;20873;-90
2022/06/10 13:43:49;;;;;;;1.70;0.68;;;;;;;;;;5053287;28;20405;-89
2022/06/10 13:46:22;;;;;;;1.92;0.68;;;;;;;;;;5053270;28;20464;-89
2022/06/10 13:48:50;;;;;;;1.75;0.65;;;;;;;;;;5052171;28;20373;-89
2022/06/10 13:51:28;;;;;;;1.25;0.63;;;;;;;;;;5053668;28;20377;-89
2022/06/10 13:54:05;;;;;;;4.25;0.93;;;;;;;;;;5054061;28;20439;-89
2022/06/10 13:56:36;;;;;;;1.40;0.73;;;;;;;;;;5054425;28;20373;-88
2022/06/10 13:59:03;;;;;;;2.28;0.50;;;;;;;;;;5053742;28;20488;-89
2022/06/10 14:01:31;;;;;;;1.50;0.63;;;;;;;;;;5053877;28;20374;-89
2022/06/10 14:04:02;;;;;;;1.73;0.50;;;;;;;;;;5053291;28;20388;-88
2022/06/10 14:06:30;;;;;;;1.15;0.50;;;;;;;;;;5052822;28;20381;-87
2022/06/10 14:09:01;;;;;;;2.00;0.50;;;;;;;;;;5053785;28;20384;-89
2022/06/10 14:11:32;;;;;;;1.15;0.57;;;;;;;;;;5053591;28;20381;-89
2022/06/10 14:14:01;;;;;;;2.00;0.60;;;;;;;;;;5053917;28;20405;-88
2022/06/10 14:16:28;;;;;;;1.33;0.43;;;;;;;;;;5053407;28;20504;-87
2022/06/10 14:18:55;;;;;;;1.07;0.50;;;;;;;;;;5051583;28;20874;-87
2022/06/10 14:21:21;;;;;;;3.13;2.25;;;;;;;;;;5053022;28;20535;-87
2022/06/10 14:24:03;;;;;;;0.90;0.47;;;;;;;;;;5042448;28;20415;-88
2022/06/10 14:26:29;;;;;;;1.10;0.40;;;;;;;;;;5050915;28;20377;-89
2022/06/10 14:29:12;;;;;;;1.35;0.40;;;;;;;;;;5052415;28;20858;-88
2022/06/10 14:31:41;;;;;;;1.10;0.50;;;;;;;;;;5052502;28;20390;-88
2022/06/10 14:34:19;;;;;;;1.33;0.50;;;;;;;;;;5052468;28;20377;-88
2022/06/10 14:37:11;;;;;;;1.10;0.40;;;;;;;;;;5038168;28;20381;-88
2022/06/10 14:39:37;;;;;;;0.98;0.50;;;;;;;;;;5051494;28;20428;-88
2022/06/10 14:42:07;;;;;;;2.10;0.50;;;;;;;;;;5053423;28;20890;-88
2022/06/10 14:44:50;;;;;;;1.27;0.50;;;;;;;;;;5055349;28;20389;-88
2022/06/10 14:47:19;;;;;;;1.60;0.57;;;;;;;;;;5056704;28;20379;-89
2022/06/10 14:50:03;;;;;;;1.20;0.60;;;;;;;;;;5055502;28;20437;-88
2022/06/10 14:52:37;;;;;;;1.60;0.60;;;;;;;;;;5045840;28;20461;-88
2022/06/10 14:55:04;;;;;;;2.10;0.60;;;;;;;;;;5057297;28;20389;-88
2022/06/10 14:57:30;;;;;;;1.80;0.52;;;;;;;;;;5057397;28;20413;-88
2022/06/10 14:59:59;;;;;;;1.63;0.60;;;;;;;;;;5055386;28;20750;-89
2022/06/10 15:02:26;;;;;;;1.65;0.55;;;;;;;;;;5057785;28;20374;-88
2022/06/10 15:07:37;;;;;;;3.78;1.27;;;;;;;;;;5051066;28;20380;-88
2022/06/10 15:10:05;;;;;;;1.85;0.70;;;;;;;;;;5056169;28;20916;-88
2022/06/10 15:12:32;;;;;;;2.33;1.10;;;;;;;;;;5055862;28;20393;-90
2022/06/10 15:14:58;;;;;;;1.77;0.57;;;;;;;;;;5054484;28;20392;-88
2022/06/10 15:17:26;;;;;;;1.42;0.65;;;;;;;;;;5055932;28;20516;-89